Atascocita, Texas
Current Conditions -  °F | °C
As of 6:53 AM on Tuesday 21 Oct 2014 (Local Time) from KIAH Reporting Station
Few Clouds Few Clouds  
Wind Chill: 58°   Ceiling: Unl
Heat Index: 58°   Visibility: 10mi
Dew Point: 54°   Wind: 3mph
Humidity: 87%   Direction: 30°NNE
Pressure: 30.03"   Gusts: NA
Location:  29.9871°N, 95.1826°W
Report Text: KIAH 211153Z 03003KT 10SM FEW250 14/12 A3003 RMK AO2 SLP169 T01440122 10178 20139 53007
Loading
Personal Weather Stations






























Interactive Weather Map
Tropical Storm Tracking
New forecast layout! Learn more

10-Day Weather Forecast

Advertisements
Track Severe Weather on mobile